Time;durP1;ratioP1;P1;durP2;ratioP2;P2;SDS_P1;SDS_P2;PMS_P1;PMS_P2;Temp;Humidity;BMP_temperature;BMP_pressure;BME280_temperature;BME280_humidity;BME280_pressure;Samples;Min_cycle;Max_cycle;Signal;HPM_P1;HPM_P2
2022/06/28 00:00:30;;;;;;;7.50;6.70;;;;;;100622.00;;;;104965;1309;22596;-43
2022/06/28 00:03:13;;;;;;;8.30;6.80;;;;;;100618.94;;;;105012;1307;22614;-40
2022/06/28 00:05:48;;;;;;;7.80;7.00;;;;;;100618.05;;;;104993;1311;22582;-42
2022/06/28 00:08:24;;;;;;;7.90;7.10;;;;;;100621.11;;;;104972;1311;22559;-41
2022/06/28 00:11:06;;;;;;;7.50;6.70;;;;;;100626.44;;;;104996;1309;23814;-41
2022/06/28 00:13:39;;;;;;;8.30;7.20;;;;;;100631.05;;;;104993;1311;22560;-41
2022/06/28 00:16:16;;;;;;;7.90;7.10;;;;;;100632.47;;;;104992;1306;22585;-41
2022/06/28 00:18:51;;;;;;;8.30;7.40;;;;;;100633.04;;;;104975;1311;22560;-40
2022/06/28 00:21:26;;;;;;;8.30;7.20;;;;;;100635.34;;;;105001;1307;24483;-41
2022/06/28 00:23:58;;;;;;;8.10;7.30;;;;;;100642.45;;;;104952;1311;22556;-41
2022/06/28 00:26:31;;;;;;;7.90;7.10;;;;;;100644.39;;;;104976;1308;22584;-41
2022/06/28 00:29:04;;;;;;;8.10;7.10;;;;;;100643.51;;;;104980;1307;24167;-41
2022/06/28 00:31:39;;;;;;;8.00;7.20;;;;;;100642.45;;;;104986;1311;22564;-41
2022/06/28 00:34:11;;;;;;;7.80;7.10;;;;;;100645.81;;;;104990;1312;23359;-41
2022/06/28 00:36:44;;;;;;;7.90;7.10;;;;;;100643.68;;;;104981;1311;24194;-41
2022/06/28 00:39:15;;;;;;;;;;;;;;100647.15;;;;105015;1307;22630;-41
2022/06/28 00:41:48;;;;;;;8.60;7.70;;;;;;100648.37;;;;104997;1309;24041;-41
2022/06/28 00:44:19;;;;;;;;;;;;;;100649.35;;;;104989;1307;23081;-41
2022/06/28 00:46:54;;;;;;;8.10;7.20;;;;;;100643.66;;;;104997;1308;25360;-40
2022/06/28 00:49:27;;;;;;;8.40;7.60;;;;;;100637.93;;;;105000;1309;22558;-41
2022/06/28 00:52:02;;;;;;;10.40;8.20;;;;;;100638.55;;;;104982;1311;22628;-41
2022/06/28 00:54:35;;;;;;;8.50;7.60;;;;;;100646.80;;;;104979;1311;22570;-41
2022/06/28 00:57:09;;;;;;;8.60;7.80;;;;;;100649.11;;;;104992;1307;22579;-42
2022/06/28 00:59:42;;;;;;;8.10;7.30;;;;;;100652.89;;;;104990;1312;22555;-40
2022/06/28 01:02:15;;;;;;;9.00;8.00;;;;;;100655.65;;;;104964;1311;22625;-40
2022/06/28 01:04:48;;;;;;;8.30;7.60;;;;;;100658.27;;;;105024;1311;22557;-40
2022/06/28 01:07:21;;;;;;;8.10;7.30;;;;;;100655.52;;;;104996;1307;22569;-40
2022/06/28 01:09:55;;;;;;;8.30;7.60;;;;;;100654.42;;;;104970;1307;22550;-41
2022/06/28 01:12:28;;;;;;;10.00;8.00;;;;;;100649.80;;;;105006;1310;22559;-41
2022/06/28 01:15:03;;;;;;;8.10;7.40;;;;;;100644.61;;;;105001;1308;22562;-41
2022/06/28 01:17:35;;;;;;;8.20;7.40;;;;;;100645.77;;;;104998;1314;24238;-41
2022/06/28 01:20:12;;;;;;;8.60;7.40;;;;;;100645.58;;;;104983;1310;22576;-41
2022/06/28 01:22:44;;;;;;;8.00;7.10;;;;;;100648.98;;;;104994;1308;22570;-41
2022/06/28 01:25:17;;;;;;;8.30;7.40;;;;;;100650.84;;;;104998;1310;24311;-41
2022/06/28 01:27:50;;;;;;;8.60;7.70;;;;;;100653.76;;;;104976;1308;24436;-41
2022/06/28 01:30:23;;;;;;;7.90;7.10;;;;;;100657.23;;;;104985;1315;22559;-41
2022/06/28 01:32:58;;;;;;;;;;;;;;100655.76;;;;105028;1308;22544;-41
2022/06/28 01:35:32;;;;;;;8.50;7.70;;;;;;100656.70;;;;104981;1311;22614;-40
2022/06/28 01:38:06;;;;;;;8.00;7.20;;;;;;100655.80;;;;105016;1308;22574;-41
2022/06/28 01:40:39;;;;;;;8.30;7.10;;;;;;100653.14;;;;105017;1311;22555;-41
2022/06/28 01:43:11;;;;;;;;;;;;;;100659.23;;;;105027;1309;25337;-40
2022/06/28 01:45:44;;;;;;;8.70;6.90;;;;;;100661.27;;;;104976;1312;22577;-41
2022/06/28 01:48:18;;;;;;;8.00;7.30;;;;;;100660.40;;;;105032;1310;22569;-42
2022/06/28 01:50:52;;;;;;;8.30;7.50;;;;;;100661.29;;;;105014;1304;22585;-40
2022/06/28 01:53:26;;;;;;;8.00;7.20;;;;;;100660.34;;;;105012;1307;22675;-41
2022/06/28 01:55:59;;;;;;;8.40;7.40;;;;;;100661.51;;;;105017;1310;22684;-40
2022/06/28 01:58:31;;;;;;;7.90;7.20;;;;;;100659.42;;;;104992;1310;22583;-41
2022/06/28 02:01:04;;;;;;;8.70;7.80;;;;;;100657.70;;;;104988;1309;24312;-40
2022/06/28 02:03:36;;;;;;;8.40;7.60;;;;;;100652.20;;;;104992;1307;24385;-40
2022/06/28 02:06:09;;;;;;;7.80;7.00;;;;;;100650.25;;;;104986;1310;25450;-40
2022/06/28 02:08:44;;;;;;;8.10;7.40;;;;;;100643.23;;;;104967;1308;24263;-40
2022/06/28 02:11:17;;;;;;;9.30;7.40;;;;;;100641.58;;;;104998;1307;22566;-40
2022/06/28 02:13:50;;;;;;;8.70;7.90;;;;;;100640.23;;;;104983;1308;24496;-41
2022/06/28 02:16:22;;;;;;;8.90;7.80;;;;;;100640.52;;;;105031;1308;23934;-41
2022/06/28 02:18:54;;;;;;;8.50;7.70;;;;;;100643.09;;;;105035;1312;22565;-41
2022/06/28 02:21:27;;;;;;;8.30;7.50;;;;;;100637.52;;;;104975;1315;24191;-41
2022/06/28 02:24:00;;;;;;;8.90;7.40;;;;;;100638.64;;;;105015;1312;23066;-40
2022/06/28 02:26:33;;;;;;;8.80;7.50;;;;;;100647.77;;;;105011;1307;22553;-41
2022/06/28 02:29:07;;;;;;;8.30;7.50;;;;;;100653.50;;;;104999;1307;22983;-41
2022/06/28 02:31:40;;;;;;;8.80;7.90;;;;;;100661.38;;;;105037;1308;25330;-42
2022/06/28 02:42:41;;;;;;;11.20;8.20;;;;;;100666.04;;;;104995;1316;22567;-40
2022/06/28 02:45:14;;;;;;;8.30;7.30;;;;;;100668.92;;;;105043;1308;22562;-41
2022/06/28 02:47:46;;;;;;;8.00;7.20;;;;;;100671.92;;;;104940;1311;24241;-41
2022/06/28 02:50:19;;;;;;;8.40;7.60;;;;;;100671.80;;;;104964;1310;22600;-41
2022/06/28 02:52:51;;;;;;;7.30;6.60;;;;;;100670.25;;;;104988;1311;22558;-41
2022/06/28 02:55:24;;;;;;;8.30;7.50;;;;;;100671.42;;;;104998;1308;22571;-40
2022/06/28 02:57:57;;;;;;;;;;;;;;100675.03;;;;105009;1311;22554;-41
2022/06/28 03:00:29;;;;;;;8.70;7.90;;;;;;100674.86;;;;104987;1308;23946;-40
2022/06/28 03:03:02;;;;;;;8.60;7.80;;;;;;100671.65;;;;104994;1308;22552;-40
2022/06/28 03:05:35;;;;;;;9.50;8.50;;;;;;100668.05;;;;104998;1308;24256;-40
2022/06/28 03:08:12;;;;;;;9.10;8.20;;;;;;100667.77;;;;105008;1308;24583;-40
2022/06/28 03:10:45;;;;;;;9.40;8.20;;;;;;100662.55;;;;104776;1311;337516;-40
2022/06/28 03:13:17;;;;;;;9.50;8.10;;;;;;100659.37;;;;105045;1309;22575;-40
2022/06/28 03:15:50;;;;;;;9.00;8.10;;;;;;100663.57;;;;105010;1308;24465;-40
2022/06/28 03:18:21;;;;;;;;;;;;;;100667.59;;;;105019;1310;25468;-41
2022/06/28 03:20:54;;;;;;;9.70;8.80;;;;;;100669.48;;;;105019;1310;22575;-40
2022/06/28 03:23:29;;;;;;;9.40;8.40;;;;;;100666.86;;;;104948;1308;24551;-41
2022/06/28 03:26:04;;;;;;;9.00;8.10;;;;;;100674.92;;;;105013;1315;24367;-41
2022/06/28 03:28:37;;;;;;;9.20;8.40;;;;;;100678.11;;;;104974;1308;22635;-41
2022/06/28 03:31:12;;;;;;;9.40;8.20;;;;;;100671.58;;;;105004;1311;22537;-41
2022/06/28 03:33:45;;;;;;;9.10;8.30;;;;;;100669.95;;;;105022;1309;24469;-41
2022/06/28 03:36:18;;;;;;;8.70;7.80;;;;;;100664.71;;;;104988;1313;24224;-40
2022/06/28 03:38:51;;;;;;;9.80;8.80;;;;;;100664.41;;;;105003;1308;25179;-41
2022/06/28 03:41:23;;;;;;;8.90;8.00;;;;;;100668.44;;;;105017;1308;22665;-41
2022/06/28 03:43:56;;;;;;;8.60;7.80;;;;;;100668.74;;;;105014;1311;22590;-41
2022/06/28 03:46:28;;;;;;;;;;;;;;100665.98;;;;104999;1307;22555;-41
2022/06/28 03:49:01;;;;;;;8.50;7.60;;;;;;100669.42;;;;105002;1311;22549;-41
2022/06/28 03:51:33;;;;;;;8.90;8.00;;;;;;100673.41;;;;104999;1310;22548;-40
2022/06/28 03:54:06;;;;;;;9.30;8.40;;;;;;100677.04;;;;104989;1311;23403;-41
2022/06/28 03:56:41;;;;;;;9.00;7.90;;;;;;100679.36;;;;105005;1311;22554;-41
2022/06/28 03:59:13;;;;;;;9.00;8.20;;;;;;100677.67;;;;105016;1309;22673;-41
2022/06/28 04:01:48;;;;;;;9.00;8.10;;;;;;100680.33;;;;104990;1307;24272;-41
2022/06/28 04:04:21;;;;;;;9.20;8.30;;;;;;100678.30;;;;105009;1309;24507;-41
2022/06/28 04:06:53;;;;;;;9.50;8.40;;;;;;100678.02;;;;105020;1307;24560;-41
2022/06/28 04:09:28;;;;;;;12.50;8.10;;;;;;100674.60;;;;104993;1307;23025;-41
2022/06/28 04:12:01;;;;;;;10.30;8.30;;;;;;100677.04;;;;105050;1311;23621;-41
2022/06/28 04:14:33;;;;;;;9.10;8.20;;;;;;100675.93;;;;104983;1312;22563;-41
2022/06/28 04:17:07;;;;;;;9.20;8.20;;;;;;100675.29;;;;104975;1311;26384;-41
2022/06/28 04:19:39;;;;;;;10.20;8.20;;;;;;100672.48;;;;105011;1314;24177;-41
2022/06/28 04:22:11;;;;;;;;;;;;;;100669.77;;;;104980;1307;26348;-41
2022/06/28 04:24:44;;;;;;;9.00;8.20;;;;;;100667.09;;;;105010;1306;24241;-41
2022/06/28 04:27:18;;;;;;;8.70;7.90;;;;;;100662.77;;;;104976;1309;25224;-41
2022/06/28 04:29:51;;;;;;;8.70;7.90;;;;;;100665.38;;;;104997;1311;22595;-41
2022/06/28 04:32:26;;;;;;;8.60;7.80;;;;;;100657.45;;;;104989;1311;22562;-42
2022/06/28 04:34:58;;;;;;;8.50;7.50;;;;;;100656.72;;;;104989;1307;25338;-41
2022/06/28 04:37:31;;;;;;;9.50;8.30;;;;;;100651.73;;;;105035;1309;25850;-41
2022/06/28 04:40:04;;;;;;;9.50;8.00;;;;;;100648.52;;;;104988;1307;22878;-42
2022/06/28 04:42:35;;;;;;;;;;;;;;100643.71;;;;105053;1308;23884;-41
2022/06/28 04:45:13;;;;;;;9.10;7.80;;;;;;100645.55;;;;104998;1309;23695;-41
2022/06/28 04:47:47;;;;;;;8.30;7.50;;;;;;100643.88;;;;104994;1310;23177;-41
2022/06/28 04:50:22;;;;;;;9.20;8.20;;;;;;100636.07;;;;104998;1310;22571;-41
2022/06/28 04:52:54;;;;;;;9.70;8.10;;;;;;100629.79;;;;105001;1306;22578;-41
2022/06/28 04:55:27;;;;;;;8.30;7.50;;;;;;100623.55;;;;105005;1307;24436;-41
2022/06/28 04:58:00;;;;;;;10.90;8.50;;;;;;100611.61;;;;105015;1306;22664;-41
2022/06/28 05:00:35;;;;;;;8.60;7.70;;;;;;100611.01;;;;105005;1310;24541;-41
2022/06/28 05:03:08;;;;;;;8.60;7.80;;;;;;100610.70;;;;104975;1314;24218;-41
2022/06/28 05:05:41;;;;;;;8.20;7.30;;;;;;100606.67;;;;105014;1310;22577;-41
2022/06/28 05:08:13;;;;;;;9.00;8.10;;;;;;100607.81;;;;105016;1310;25481;-41
2022/06/28 05:10:46;;;;;;;9.80;8.30;;;;;;100609.00;;;;104998;1310;22676;-41
2022/06/28 05:13:19;;;;;;;9.20;8.30;;;;;;100608.92;;;;105010;1308;23167;-41
2022/06/28 05:15:51;;;;;;;8.60;7.50;;;;;;100604.71;;;;105025;1307;22563;-41
2022/06/28 05:18:24;;;;;;;8.40;7.60;;;;;;100604.55;;;;105003;1310;24225;-41
2022/06/28 05:20:57;;;;;;;8.50;7.60;;;;;;100601.76;;;;105006;1310;22584;-41
2022/06/28 05:23:33;;;;;;;8.90;8.00;;;;;;100599.61;;;;105002;1318;22949;-41
2022/06/28 05:26:05;;;;;;;8.70;7.80;;;;;;100596.48;;;;105016;1308;23818;-41
2022/06/28 05:28:40;;;;;;;8.60;7.60;;;;;;100594.94;;;;105008;1306;22553;-42
2022/06/28 05:31:15;;;;;;;10.20;7.50;;;;;;100595.05;;;;105005;1306;22554;-41
2022/06/28 05:33:48;;;;;;;9.70;7.60;;;;;;100595.16;;;;104999;1310;22665;-41
2022/06/28 05:36:20;;;;;;;8.70;7.60;;;;;;100594.69;;;;105005;1310;22587;-41
2022/06/28 05:38:53;;;;;;;9.10;7.70;;;;;;100591.71;;;;105017;1310;22571;-41
2022/06/28 05:41:26;;;;;;;8.30;7.50;;;;;;100589.86;;;;104989;1308;24399;-41
2022/06/28 05:43:58;;;;;;;8.70;7.80;;;;;;100591.52;;;;104986;1311;22578;-41
2022/06/28 05:46:32;;;;;;;8.10;7.30;;;;;;100593.71;;;;105017;1306;22565;-41
2022/06/28 05:49:05;;;;;;;8.10;7.30;;;;;;100597.70;;;;105008;1311;24217;-41
2022/06/28 05:51:38;;;;;;;8.60;7.80;;;;;;100600.60;;;;105017;1306;25877;-41
2022/06/28 05:54:13;;;;;;;7.90;7.10;;;;;;100601.75;;;;104988;1313;22679;-42
2022/06/28 05:56:46;;;;;;;8.80;8.00;;;;;;100604.92;;;;104993;1307;22578;-41
2022/06/28 05:59:18;;;;;;;8.60;7.50;;;;;;100605.14;;;;105026;1307;24672;-42
2022/06/28 06:01:50;;;;;;;8.10;7.20;;;;;;100602.27;;;;105023;1310;22539;-41
2022/06/28 06:04:25;;;;;;;8.50;7.70;;;;;;100600.17;;;;105003;1311;22571;-42
2022/06/28 06:07:01;;;;;;;8.80;7.90;;;;;;100597.52;;;;104983;1307;25337;-41
2022/06/28 06:09:33;;;;;;;8.40;7.60;;;;;;100597.90;;;;104963;1310;23253;-41
2022/06/28 06:12:10;;;;;;;9.00;7.20;;;;;;100593.70;;;;104990;1315;22770;-41
2022/06/28 06:14:43;;;;;;;9.50;8.10;;;;;;100590.98;;;;104963;1310;22692;-42
2022/06/28 06:17:16;;;;;;;8.90;7.90;;;;;;100587.55;;;;104984;1308;25345;-41
2022/06/28 06:19:50;;;;;;;8.80;7.80;;;;;;100584.29;;;;104972;1307;22836;-42
2022/06/28 06:22:21;;;;;;;;;;;;;;100580.70;;;;105001;1308;22669;-41
2022/06/28 06:24:53;;;;;;;9.60;7.80;;;;;;100581.66;;;;104964;1310;22550;-41
2022/06/28 06:27:25;;;;;;;9.40;8.00;;;;;;100586.23;;;;104998;1306;22571;-41
2022/06/28 06:29:58;;;;;;;8.20;7.20;;;;;;100589.67;;;;104936;1311;22557;-39
2022/06/28 06:32:30;;;;;;;8.70;7.60;;;;;;100586.40;;;;104981;1303;24612;-40
2022/06/28 06:35:03;;;;;;;8.50;7.50;;;;;;100580.66;;;;104960;1310;24347;-40
2022/06/28 06:37:35;;;;;;;10.00;8.10;;;;;;100586.02;;;;104977;1310;22568;-40
2022/06/28 06:40:13;;;;;;;10.40;7.10;;;;;;100592.21;;;;104980;1310;24165;-40
2022/06/28 06:42:45;;;;;;;8.60;7.60;;;;;;100594.92;;;;104990;1310;24208;-40
2022/06/28 06:45:16;;;;;;;;;;;;;;100596.47;;;;104977;1308;23116;-40
2022/06/28 06:47:49;;;;;;;9.10;7.20;;;;;;100595.90;;;;104971;1316;22565;-41
2022/06/28 06:50:22;;;;;;;8.30;7.50;;;;;;100593.39;;;;104974;1307;23497;-42
2022/06/28 06:52:56;;;;;;;8.30;7.50;;;;;;100589.15;;;;104994;1310;22677;-41
2022/06/28 06:55:30;;;;;;;8.30;6.90;;;;;;100583.12;;;;104978;1312;22560;-40
2022/06/28 06:58:00;;;;;;;;;;;;;;100587.02;;;;104975;1310;25889;-41
2022/06/28 07:00:35;;;;;;;8.30;7.50;;;;;;100588.82;;;;104962;1310;22571;-42
2022/06/28 07:03:08;;;;;;;7.60;6.80;;;;;;100590.52;;;;104970;1308;25407;-41
2022/06/28 07:05:40;;;;;;;8.60;7.10;;;;;;100589.75;;;;104941;1311;25351;-41
2022/06/28 07:08:15;;;;;;;7.80;7.00;;;;;;100588.79;;;;104974;1307;22688;-40
2022/06/28 07:10:47;;;;;;;8.80;7.50;;;;;;100589.13;;;;104983;1310;24038;-41
2022/06/28 07:13:19;;;;;;;8.10;7.00;;;;;;100589.50;;;;104953;1311;24211;-41
2022/06/28 07:15:52;;;;;;;7.80;7.10;;;;;;100587.66;;;;104960;1310;22615;-41
2022/06/28 07:18:25;;;;;;;11.20;6.70;;;;;;100591.70;;;;104985;1309;23628;-41
2022/06/28 07:20:59;;;;;;;7.90;7.10;;;;;;100591.60;;;;104956;1311;22561;-41
2022/06/28 07:23:30;;;;;;;;;;;;;;100588.77;;;;104987;1308;24227;-41
2022/06/28 07:26:02;;;;;;;7.50;6.60;;;;;;100588.73;;;;104962;1311;24219;-40
2022/06/28 07:28:36;;;;;;;7.90;7.10;;;;;;100593.02;;;;104957;1310;22554;-41
2022/06/28 07:31:13;;;;;;;7.20;6.60;;;;;;100597.59;;;;104964;1310;25199;-41
2022/06/28 07:33:45;;;;;;;9.80;6.40;;;;;;100595.38;;;;104959;1310;25941;-41
2022/06/28 07:36:17;;;;;;;7.20;6.40;;;;;;100597.90;;;;104951;1308;25148;-41
2022/06/28 07:38:50;;;;;;;7.90;6.80;;;;;;100601.07;;;;104970;1310;25588;-41
2022/06/28 07:41:23;;;;;;;7.30;6.60;;;;;;100599.96;;;;104952;1311;22557;-41
2022/06/28 07:43:56;;;;;;;7.90;6.40;;;;;;100598.08;;;;104921;1309;23138;-44
2022/06/28 07:46:31;;;;;;;7.20;6.30;;;;;;100594.45;;;;105026;1310;22564;-43
2022/06/28 07:49:06;;;;;;;7.50;6.80;;;;;;100598.33;;;;104959;1310;22572;-41
2022/06/28 07:54:28;;;;;;;6.50;5.80;;;;;;100594.36;;;;105003;1309;25149;-40
2022/06/28 07:57:01;;;;;;;7.40;6.50;;;;;;100592.08;;;;105025;1307;22550;-40
2022/06/28 07:59:36;;;;;;;7.40;6.10;;;;;;100596.58;;;;105010;1307;22561;-37
2022/06/28 08:02:08;;;;;;;8.40;6.10;;;;;;100598.40;;;;104926;1310;22602;-42
2022/06/28 08:04:40;;;;;;;6.70;6.00;;;;;;100601.47;;;;104938;1310;22657;-40
2022/06/28 08:07:12;;;;;;;7.60;5.90;;;;;;100604.08;;;;104929;1310;22620;-39
2022/06/28 08:09:45;;;;;;;6.10;5.50;;;;;;100603.05;;;;104948;1310;24951;-39
2022/06/28 08:12:20;;;;;;;6.40;5.60;;;;;;100605.45;;;;104931;1308;22612;-40
2022/06/28 08:14:55;;;;;;;6.20;5.60;;;;;;100608.38;;;;104955;1310;22553;-40
2022/06/28 08:17:28;;;;;;;5.90;5.30;;;;;;100612.80;;;;104961;1308;22546;-44
2022/06/28 08:20:01;;;;;;;6.60;5.50;;;;;;100607.60;;;;105066;1310;23950;-37
2022/06/28 08:22:33;;;;;;;6.50;5.80;;;;;;100603.67;;;;105035;1310;24277;-37
2022/06/28 08:25:09;;;;;;;6.10;5.50;;;;;;100603.95;;;;105040;1310;23355;-40
2022/06/28 08:27:45;;;;;;;6.10;5.20;;;;;;100607.79;;;;105048;1306;22562;-39
2022/06/28 08:30:18;;;;;;;6.90;5.30;;;;;;100608.27;;;;105039;1306;23893;-38
2022/06/28 08:32:53;;;;;;;6.30;5.40;;;;;;100606.86;;;;105068;1305;22549;-42
2022/06/28 08:35:28;;;;;;;5.00;4.40;;;;;;100601.48;;;;104932;1310;22835;-40
2022/06/28 08:38:00;;;;;;;5.60;5.00;;;;;;100602.71;;;;105040;1310;22553;-41
2022/06/28 08:40:33;;;;;;;6.90;5.00;;;;;;100612.56;;;;105004;1310;22526;-41
2022/06/28 08:43:12;;;;;;;6.00;5.10;;;;;;100617.67;;;;104942;1315;22547;-42
2022/06/28 08:45:45;;;;;;;5.60;4.90;;;;;;100615.16;;;;105052;1309;22571;-41
2022/06/28 08:48:24;;;;;;;;;;;;;;100611.55;;;;105065;1310;25455;-41
2022/06/28 08:50:57;;;;;;;5.30;4.40;;;;;;100617.04;;;;105035;1310;22552;-41
2022/06/28 08:53:35;;;;;;;5.90;4.70;;;;;;100616.27;;;;104920;1307;22554;-41
2022/06/28 08:56:25;;;;;;;6.10;4.50;;;;;;100612.88;;;;105610;1310;22562;-42
2022/06/28 08:59:01;;;;;;;6.40;4.90;;;;;;100615.17;;;;106729;1310;22354;-42
2022/06/28 09:01:36;;;;;;;6.20;4.70;;;;;;100613.79;;;;105662;1310;22547;-41
2022/06/28 09:04:10;;;;;;;5.60;4.70;;;;;;100602.60;;;;104785;1310;24347;-41
2022/06/28 09:07:12;;;;;;;5.40;4.50;;;;;;100605.93;;;;106787;1308;22324;-42
2022/06/28 09:09:52;;;;;;;6.20;4.50;;;;;;100601.25;;;;104667;1311;25207;-41
2022/06/28 09:12:24;;;;;;;6.10;4.10;;;;;;100601.70;;;;104978;1305;22606;-45
2022/06/28 09:14:59;;;;;;;6.20;4.30;;;;;;100599.24;;;;104983;1306;25885;-46
2022/06/28 09:17:34;;;;;;;5.90;4.20;;;;;;100598.48;;;;105036;1298;24351;-46
2022/06/28 09:20:11;;;;;;;8.50;4.50;;;;;;100598.46;;;;104992;1310;24206;-39
2022/06/28 09:22:46;;;;;;;6.20;4.30;;;;;;100590.48;;;;104989;1308;22558;-38
2022/06/28 09:25:32;;;;;;;5.40;4.10;;;;;;100580.77;;;;104944;1306;22607;-47
2022/06/28 09:28:06;;;;;;;6.90;4.90;;;;;;100580.97;;;;104962;1311;22552;-51
2022/06/28 09:30:37;;;;;;;;;;;;;;100577.94;;;;105051;1307;22509;-52
2022/06/28 09:33:27;;;;;;;5.20;4.20;;;;;;100578.60;;;;105040;1308;22548;-51
2022/06/28 09:36:02;;;;;;;5.40;3.90;;;;;;100569.84;;;;105045;1310;24203;-48
2022/06/28 09:38:38;;;;;;;5.20;4.30;;;;;;100573.33;;;;105022;1302;24251;-53
2022/06/28 09:41:26;;;;;;;5.10;4.40;;;;;;100571.34;;;;104952;1312;22556;-51
2022/06/28 09:44:04;;;;;;;6.00;4.10;;;;;;100562.89;;;;105033;1310;22663;-48
2022/06/28 09:46:39;;;;;;;4.90;3.90;;;;;;100568.70;;;;104955;1307;22562;-49
2022/06/28 09:49:15;;;;;;;6.00;4.40;;;;;;100564.84;;;;104948;1310;22873;-49
2022/06/28 09:51:47;;;;;;;5.50;4.20;;;;;;100562.27;;;;104967;1311;22549;-48
2022/06/28 09:54:24;;;;;;;6.60;4.50;;;;;;100561.86;;;;104943;1315;22661;-51
2022/06/28 09:56:58;;;;;;;5.30;4.10;;;;;;100559.75;;;;104918;1308;23765;-51
2022/06/28 09:59:35;;;;;;;4.80;4.30;;;;;;100566.87;;;;104910;1309;23795;-40
2022/06/28 10:02:14;;;;;;;5.80;4.60;;;;;;100573.48;;;;104925;1310;22557;-44
2022/06/28 10:04:47;;;;;;;6.20;5.20;;;;;;100576.39;;;;104923;1310;34829;-35
2022/06/28 10:07:21;;;;;;;5.80;4.60;;;;;;100573.13;;;;104947;1308;23922;-36
2022/06/28 10:09:53;;;;;;;5.60;4.80;;;;;;100568.59;;;;104976;1310;23260;-40
2022/06/28 10:15:19;;;;;;;5.40;4.60;;;;;;100564.15;;;;104806;1307;22582;-45
2022/06/28 10:17:55;;;;;;;5.30;4.40;;;;;;100562.35;;;;104939;1310;26414;-40
2022/06/28 10:20:31;;;;;;;5.90;4.50;;;;;;100555.08;;;;105054;1308;23784;-38
2022/06/28 10:23:26;;;;;;;6.30;4.80;;;;;;100560.15;;;;105095;1310;22571;-40
2022/06/28 10:26:15;;;;;;;5.60;4.60;;;;;;100562.59;;;;105064;1308;22598;-37
2022/06/28 10:29:03;;;;;;;6.50;5.10;;;;;;100565.81;;;;104967;1310;24589;-38
2022/06/28 10:31:45;;;;;;;5.80;4.70;;;;;;100567.08;;;;104941;1311;22550;-36
2022/06/28 10:34:23;;;;;;;5.00;4.50;;;;;;100565.59;;;;104924;1308;24488;-35
2022/06/28 10:36:57;;;;;;;6.20;4.80;;;;;;100560.77;;;;104949;1308;22815;-36
2022/06/28 10:39:32;;;;;;;6.40;4.40;;;;;;100558.46;;;;104946;1308;22601;-38
2022/06/28 10:42:14;;;;;;;5.00;4.40;;;;;;100553.95;;;;104935;1310;22760;-36
2022/06/28 10:44:50;;;;;;;5.20;4.30;;;;;;100559.89;;;;104902;1312;22651;-36
2022/06/28 10:47:22;;;;;;;5.80;4.80;;;;;;100553.39;;;;104975;1310;24343;-38
2022/06/28 10:50:06;;;;;;;5.50;4.70;;;;;;100548.39;;;;104943;1312;22553;-39
2022/06/28 10:52:39;;;;;;;5.20;4.20;;;;;;100556.86;;;;104951;1310;25213;-36
2022/06/28 10:55:27;;;;;;;5.30;4.60;;;;;;100555.89;;;;104930;1308;24267;-36
2022/06/28 10:58:13;;;;;;;5.80;4.50;;;;;;100555.00;;;;104933;1310;22614;-36
2022/06/28 11:00:56;;;;;;;5.20;4.30;;;;;;100556.83;;;;104963;1307;24299;-35
2022/06/28 11:03:28;;;;;;;5.20;4.00;;;;;;100553.45;;;;104939;1310;23932;-35
2022/06/28 11:06:06;;;;;;;5.70;4.30;;;;;;100556.95;;;;104910;1312;22564;-34
2022/06/28 11:08:51;;;;;;;4.90;4.20;;;;;;100557.98;;;;104947;1309;25208;-37
2022/06/28 11:11:35;;;;;;;4.80;3.90;;;;;;100552.54;;;;104623;1310;453698;-37
2022/06/28 11:14:32;;;;;;;6.10;4.60;;;;;;100553.13;;;;104941;1306;24119;-37
2022/06/28 11:17:18;;;;;;;4.90;4.10;;;;;;100550.62;;;;104945;1311;22551;-37
2022/06/28 11:19:53;;;;;;;4.80;4.30;;;;;;100551.17;;;;105023;1306;24380;-36
2022/06/28 11:22:30;;;;;;;5.20;4.50;;;;;;100552.32;;;;105076;1305;26405;-36
2022/06/28 11:25:06;;;;;;;5.20;4.70;;;;;;100553.85;;;;105035;1310;22567;-37
2022/06/28 11:27:39;;;;;;;5.20;4.40;;;;;;100554.41;;;;104978;1307;22867;-40
2022/06/28 11:30:18;;;;;;;5.00;4.10;;;;;;100556.02;;;;105067;1306;25873;-38
2022/06/28 11:32:53;;;;;;;5.60;4.30;;;;;;100556.25;;;;105071;1306;22566;-36
2022/06/28 11:35:27;;;;;;;5.00;4.20;;;;;;100556.55;;;;105068;1310;22549;-37
2022/06/28 11:38:05;;;;;;;5.00;4.30;;;;;;100558.38;;;;105075;1306;22565;-37
2022/06/28 11:40:47;;;;;;;5.80;4.20;;;;;;100550.38;;;;105070;1307;24061;-39
2022/06/28 11:43:25;;;;;;;4.80;4.10;;;;;;100552.33;;;;105034;1310;23920;-36
2022/06/28 11:45:59;;;;;;;5.00;4.20;;;;;;100553.67;;;;104946;1307;22551;-36
2022/06/28 11:48:33;;;;;;;5.20;3.60;;;;;;100552.20;;;;105040;1310;22599;-36
2022/06/28 11:51:06;;;;;;;6.30;4.00;;;;;;100555.55;;;;105046;1310;24316;-36
2022/06/28 11:53:47;;;;;;;5.50;3.90;;;;;;100553.20;;;;105071;1310;22554;-36
2022/06/28 11:56:19;;;;;;;5.10;3.80;;;;;;100554.27;;;;104957;1310;22628;-36
2022/06/28 11:58:51;;;;;;;5.30;3.60;;;;;;100555.76;;;;105040;1310;22664;-36
2022/06/28 12:01:27;;;;;;;5.40;4.00;;;;;;100546.59;;;;105049;1305;24530;-36
2022/06/28 12:04:06;;;;;;;4.40;3.60;;;;;;100547.47;;;;105052;1307;24479;-36
2022/06/28 12:06:44;;;;;;;5.20;4.00;;;;;;100545.49;;;;105074;1310;22831;-36
2022/06/28 12:09:19;;;;;;;4.60;3.70;;;;;;100547.78;;;;105023;1306;22563;-36
2022/06/28 12:11:56;;;;;;;5.10;3.40;;;;;;100542.65;;;;105058;1305;25331;-36
2022/06/28 12:14:39;;;;;;;5.10;4.00;;;;;;100543.68;;;;105053;1305;22558;-36
2022/06/28 12:17:12;;;;;;;4.50;3.40;;;;;;100540.36;;;;105030;1311;22609;-36
2022/06/28 12:19:45;;;;;;;4.70;3.50;;;;;;100545.41;;;;105017;1311;22691;-37
2022/06/28 12:22:24;;;;;;;5.30;3.70;;;;;;100546.83;;;;105062;1310;24613;-36
2022/06/28 12:24:59;;;;;;;4.80;3.70;;;;;;100545.72;;;;105053;1309;24225;-36
2022/06/28 12:27:34;;;;;;;4.50;3.60;;;;;;100542.27;;;;105043;1307;22557;-36
2022/06/28 12:30:11;;;;;;;4.60;3.50;;;;;;100543.00;;;;105045;1308;22890;-36
2022/06/28 12:32:43;;;;;;;4.90;3.90;;;;;;100547.76;;;;104931;1307;24036;-36
2022/06/28 12:35:17;;;;;;;4.80;3.40;;;;;;100546.09;;;;105024;1304;22632;-36
2022/06/28 12:37:50;;;;;;;5.40;3.60;;;;;;100539.15;;;;105094;1311;24204;-36
2022/06/28 12:40:24;;;;;;;4.90;3.60;;;;;;100534.31;;;;105062;1311;24239;-36
2022/06/28 12:42:56;;;;;;;5.20;3.80;;;;;;100531.73;;;;105053;1306;22722;-36
2022/06/28 12:45:28;;;;;;;5.00;3.50;;;;;;100525.73;;;;105051;1311;24293;-36
2022/06/28 12:48:02;;;;;;;4.60;3.60;;;;;;100525.42;;;;105034;1311;22582;-36
2022/06/28 12:50:36;;;;;;;4.50;3.50;;;;;;100522.99;;;;105055;1308;24399;-36
2022/06/28 12:53:09;;;;;;;4.40;3.60;;;;;;100520.13;;;;105069;1305;26423;-36
2022/06/28 12:55:43;;;;;;;4.90;3.60;;;;;;100517.94;;;;105040;1310;22647;-36
2022/06/28 12:58:16;;;;;;;4.80;3.70;;;;;;100516.85;;;;104967;1305;31072;-36
2022/06/28 13:00:48;;;;;;;5.00;3.80;;;;;;100513.27;;;;104765;1311;35429;-36
2022/06/28 13:03:21;;;;;;;4.20;3.40;;;;;;100510.95;;;;104748;1310;35114;-36
2022/06/28 13:05:53;;;;;;;5.30;4.10;;;;;;100507.27;;;;104792;1306;33841;-36
2022/06/28 13:08:25;;;;;;;4.80;3.60;;;;;;100505.11;;;;104759;1306;35330;-36
2022/06/28 13:10:57;;;;;;;5.20;3.80;;;;;;100503.48;;;;104784;1306;35083;-38
2022/06/28 13:13:30;;;;;;;4.80;3.70;;;;;;100496.14;;;;104782;1307;35442;-36
2022/06/28 13:16:03;;;;;;;4.40;3.40;;;;;;100492.35;;;;104798;1306;35227;-36
2022/06/28 13:18:35;;;;;;;4.50;3.50;;;;;;100490.09;;;;104782;1310;35770;-36
2022/06/28 13:21:08;;;;;;;4.60;3.60;;;;;;100485.77;;;;104689;1308;33714;-38
2022/06/28 13:23:42;;;;;;;;;;;;;;100483.66;;;;104693;1309;35535;-38
2022/06/28 13:26:15;;;;;;;4.60;4.00;;;;;;100483.69;;;;104697;1307;33484;-36
2022/06/28 13:28:46;;;;;;;;;;;;;;100480.00;;;;104680;1307;35322;-36
2022/06/28 13:31:20;;;;;;;4.90;3.70;;;;;;100479.06;;;;104716;1307;33329;-36
2022/06/28 13:33:52;;;;;;;4.80;3.80;;;;;;100479.67;;;;104646;1310;35428;-39
2022/06/28 13:36:25;;;;;;;4.80;4.10;;;;;;100471.86;;;;104777;1306;34611;-36
2022/06/28 13:38:57;;;;;;;5.00;4.40;;;;;;100467.34;;;;104761;1306;34028;-36
2022/06/28 13:41:29;;;;;;;4.70;4.10;;;;;;100465.85;;;;104768;1310;33504;-36